createdAt,value
2023-04-15T00:01:20.804Z,99583.06
2023-04-15T00:06:23.783Z,99578.63
2023-04-15T00:11:26.377Z,99584.02
2023-04-15T00:16:29.056Z,99586.25
2023-04-15T00:21:32.465Z,99586.59
2023-04-15T00:26:35.676Z,99577.75
2023-04-15T00:31:38.270Z,99575.45
2023-04-15T00:36:41.264Z,99570.58
2023-04-15T00:41:45.620Z,99567.89
2023-04-15T00:46:50.706Z,99565.11
2023-04-15T00:51:53.232Z,99576.52
2023-04-15T00:56:56.515Z,99574.46
2023-04-15T01:01:59.367Z,99575.02
2023-04-15T01:07:02.605Z,99577.64
2023-04-15T01:12:07.111Z,99578.85
2023-04-15T01:17:09.760Z,99578.30
2023-04-15T01:22:12.411Z,99572.41
2023-04-15T01:27:15.762Z,99570.98
2023-04-15T01:32:18.656Z,99570.06
2023-04-15T01:37:21.536Z,99566.33
2023-04-15T01:42:24.471Z,99571.06
2023-04-15T01:47:27.049Z,99570.79
2023-04-15T01:52:29.685Z,99563.45
2023-04-15T01:57:32.290Z,99555.23
2023-04-15T02:02:35.065Z,99558.34
2023-04-15T02:07:37.968Z,99564.59
2023-04-15T02:12:40.659Z,99572.40
2023-04-15T02:17:46.131Z,99571.35
2023-04-15T02:22:49.722Z,99570.38
2023-04-15T02:27:53.148Z,99565.94
2023-04-15T02:32:56.088Z,99567.34
2023-04-15T02:37:58.755Z,99567.88
2023-04-15T02:43:01.345Z,99566.86
2023-04-15T02:48:06.469Z,99568.25
2023-04-15T02:53:09.431Z,99570.69
2023-04-15T02:58:12.394Z,99572.84
2023-04-15T03:03:15.357Z,99568.38
2023-04-15T03:08:18.105Z,99572.81
2023-04-15T03:13:21.433Z,99577.20
2023-04-15T03:18:24.022Z,99574.43
2023-04-15T03:23:26.684Z,99578.89
2023-04-15T03:28:30.054Z,99580.83
2023-04-15T03:33:32.613Z,99582.27
2023-04-15T03:38:35.332Z,99582.98
2023-04-15T03:43:37.913Z,99575.90
2023-04-15T03:48:40.758Z,99574.48
2023-04-15T03:53:43.588Z,99575.77
2023-04-15T03:58:46.674Z,99571.02
2023-04-15T04:03:49.316Z,99580.48
2023-04-15T04:08:52.035Z,99576.67
2023-04-15T04:13:54.581Z,99575.23
2023-04-15T04:18:57.100Z,99575.88
2023-04-15T04:24:00.174Z,99578.93
2023-04-15T04:29:02.992Z,99573.89
2023-04-15T04:34:06.047Z,99572.84
2023-04-15T04:39:08.984Z,99579.34
2023-04-15T04:44:11.624Z,99581.87
2023-04-15T04:49:14.100Z,99584.04
2023-04-15T04:54:17.556Z,99590.86
2023-04-15T04:59:20.305Z,99593.02
2023-04-15T05:04:22.813Z,99588.73
2023-04-15T05:09:25.573Z,99588.98
2023-04-15T05:14:28.149Z,99601.38
2023-04-15T05:19:30.830Z,99603.70
2023-04-15T05:24:33.367Z,99601.84
2023-04-15T05:29:36.028Z,99597.98
2023-04-15T05:34:38.539Z,99601.30
2023-04-15T05:39:41.101Z,99605.85
2023-04-15T05:44:43.885Z,99608.99
2023-04-15T05:49:46.422Z,99613.58
2023-04-15T05:54:48.926Z,99617.72
2023-04-15T05:59:54.261Z,99620.22
2023-04-15T06:04:57.736Z,99618.05
2023-04-15T06:10:00.598Z,99621.76
2023-04-15T06:15:03.952Z,99621.52
2023-04-15T06:20:08.388Z,99621.38
2023-04-15T06:25:11.056Z,99622.05
2023-04-15T06:30:13.723Z,99620.36
2023-04-15T06:35:16.317Z,99624.23
2023-04-15T06:40:18.821Z,99624.37
2023-04-15T06:45:21.575Z,99627.45
2023-04-15T06:50:24.327Z,99630.45
2023-04-15T06:55:27.487Z,99636.91
2023-04-15T07:00:30.474Z,99638.14
2023-04-15T07:05:33.456Z,99636.83
2023-04-15T07:10:36.355Z,99636.63
2023-04-15T07:15:38.966Z,99640.42
2023-04-15T07:20:41.521Z,99643.24
2023-04-15T07:25:44.068Z,99649.13
2023-04-15T07:30:46.618Z,99648.59
2023-04-15T07:35:49.947Z,99658.57
2023-04-15T07:40:52.751Z,99662.48
2023-04-15T07:45:55.453Z,99662.75
2023-04-15T07:50:57.988Z,99660.39
2023-04-15T07:56:00.609Z,99664.23
2023-04-15T08:01:05.270Z,99673.27
2023-04-15T08:06:07.889Z,99676.87
2023-04-15T08:11:10.855Z,99672.45
2023-04-15T08:16:18.556Z,99666.65
2023-04-15T08:21:21.387Z,99669.20
2023-04-15T08:26:23.897Z,99679.27
2023-04-15T08:31:30.779Z,99678.70
2023-04-15T08:36:33.621Z,99682.30
2023-04-15T08:41:47.811Z,99677.21
2023-04-15T08:46:52.405Z,99679.89
2023-04-15T08:51:58.736Z,99678.73
2023-04-15T08:57:02.451Z,99675.56
2023-04-15T09:02:05.886Z,99676.30
2023-04-15T09:07:08.480Z,99673.91
2023-04-15T09:12:12.161Z,99680.30
2023-04-15T09:17:19.468Z,99682.36
2023-04-15T09:22:22.612Z,99681.33
2023-04-15T09:27:25.124Z,99678.38
2023-04-15T09:32:27.694Z,99679.42
2023-04-15T09:37:36.806Z,99679.20
2023-04-15T09:42:56.354Z,99688.93
2023-04-15T09:48:00.692Z,99700.73
2023-04-15T09:53:03.809Z,99697.45
2023-04-15T09:58:17.421Z,99693.42
2023-04-15T10:03:25.944Z,99697.17
2023-04-15T10:08:30.810Z,99705.32
2023-04-15T10:13:35.972Z,99705.16
2023-04-15T10:18:43.111Z,99713.48
2023-04-15T10:23:46.065Z,99714.19
2023-04-15T10:28:48.926Z,99712.98
2023-04-15T10:33:53.379Z,99708.55
2023-04-15T10:38:55.919Z,99706.84
2023-04-15T10:44:03.726Z,99712.43
2023-04-15T10:49:08.138Z,99709.98
2023-04-15T10:54:15.277Z,99717.88
2023-04-15T10:59:17.879Z,99715.36
2023-04-15T11:04:52.858Z,99721.90
2023-04-15T11:09:56.492Z,99714.30
2023-04-15T11:14:59.106Z,99718.50
2023-04-15T11:20:01.888Z,99718.75
2023-04-15T11:25:05.403Z,99723.11
2023-04-15T11:30:28.552Z,99722.92
2023-04-15T11:35:32.218Z,99728.60
2023-04-15T11:40:35.371Z,99730.98
2023-04-15T11:45:48.160Z,99729.98
2023-04-15T11:51:08.041Z,99734.28
2023-04-15T11:56:16.518Z,99741.92
2023-04-15T12:01:19.638Z,99743.71
2023-04-15T12:06:27.671Z,99739.96
2023-04-15T12:11:32.898Z,99742.42
2023-04-15T12:16:49.149Z,99745.14
2023-04-15T12:21:59.954Z,99748.30
2023-04-15T12:27:07.869Z,99753.45
2023-04-15T12:32:15.390Z,99755.11
2023-04-15T12:37:18.521Z,99759.64
2023-04-15T12:42:22.459Z,99763.82
2023-04-15T12:47:25.352Z,99765.61
2023-04-15T12:52:27.900Z,99767.52
2023-04-15T12:57:30.407Z,99771.20
2023-04-15T13:02:33.074Z,99769.94
2023-04-15T13:07:35.800Z,99768.21
2023-04-15T13:12:38.386Z,99770.94
2023-04-15T13:17:41.065Z,99773.89
2023-04-15T13:22:43.620Z,99775.68
2023-04-15T13:27:46.575Z,99781.73
2023-04-15T13:32:50.691Z,99783.98
2023-04-15T13:37:54.162Z,99780.58
2023-04-15T13:42:57.788Z,99782.42
2023-04-15T13:48:01.174Z,99783.86
2023-04-15T13:53:03.884Z,99781.93
2023-04-15T13:58:06.424Z,99787.35
2023-04-15T14:03:09.566Z,99790.15
2023-04-15T14:08:12.531Z,99795.91
2023-04-15T14:13:15.195Z,99798.52
2023-04-15T14:18:17.840Z,99806.05
2023-04-15T14:23:20.333Z,99810.62
2023-04-15T14:28:22.901Z,99813.66
2023-04-15T14:33:25.592Z,99815.20
2023-04-15T14:38:28.377Z,99820.75
2023-04-15T14:43:30.870Z,99822.30
2023-04-15T14:48:33.453Z,99828.27
2023-04-15T14:53:35.966Z,99836.35
2023-04-15T14:58:38.517Z,99840.04
2023-04-15T15:03:41.550Z,99849.06
2023-04-15T15:08:44.238Z,99853.43
2023-04-15T15:13:47.207Z,99853.83
2023-04-15T15:18:51.373Z,99858.04
2023-04-15T15:23:54.213Z,99856.94
2023-04-15T15:28:56.959Z,99862.07
2023-04-15T15:33:59.548Z,99870.23
2023-04-15T15:39:02.143Z,99873.35
2023-04-15T15:44:04.977Z,99881.14
2023-04-15T15:49:07.636Z,99886.58
2023-04-15T15:54:10.393Z,99883.43
2023-04-15T15:59:12.996Z,99887.17
2023-04-15T16:04:16.034Z,99891.91
2023-04-15T16:09:18.783Z,99899.94
2023-04-15T16:14:21.559Z,99901.20
2023-04-15T16:19:24.114Z,99904.98
2023-04-15T16:24:27.744Z,99907.85
2023-04-15T16:29:30.426Z,99914.48
2023-04-15T16:34:32.977Z,99921.01
2023-04-15T16:39:35.681Z,99927.66
2023-04-15T16:44:38.423Z,99934.61
2023-04-15T16:49:41.132Z,99943.88
2023-04-15T16:54:43.658Z,99951.39
2023-04-15T16:59:46.170Z,99957.84
2023-04-15T17:04:48.697Z,99962.99
2023-04-15T17:09:53.280Z,99973.39
2023-04-15T17:14:57.016Z,99977.51
2023-04-15T17:19:59.593Z,99982.56
2023-04-15T17:25:03.137Z,99986.55
2023-04-15T17:30:07.464Z,99993.64
2023-04-15T17:35:10.385Z,99998.50
2023-04-15T17:40:14.889Z,100002.21
2023-04-15T17:45:17.670Z,100008.95
2023-04-15T17:50:20.651Z,100016.85
2023-04-15T17:55:24.211Z,100027.53
2023-04-15T18:00:27.034Z,100032.84
2023-04-15T18:05:29.961Z,100037.26
2023-04-15T18:10:36.238Z,100046.05
2023-04-15T18:15:38.856Z,100054.82
2023-04-15T18:20:41.639Z,100059.48
2023-04-15T18:25:45.256Z,100060.09
2023-04-15T18:30:48.404Z,100068.23
2023-04-15T18:35:51.268Z,100076.77
2023-04-15T18:40:54.001Z,100077.94
2023-04-15T18:45:57.096Z,100082.23
2023-04-15T18:51:00.149Z,100091.33
2023-04-15T18:56:03.214Z,100089.81
2023-04-15T19:01:06.783Z,100093.27
2023-04-15T19:06:09.390Z,100100.02
2023-04-15T19:11:12.308Z,100103.29
2023-04-15T19:16:14.998Z,100103.43
2023-04-15T19:21:17.869Z,100104.87
2023-04-15T19:26:20.691Z,100107.55
2023-04-15T19:31:23.587Z,100105.73
2023-04-15T19:36:28.102Z,100108.96
2023-04-15T19:41:30.836Z,100106.66
2023-04-15T19:46:33.492Z,100111.05
2023-04-15T19:51:36.380Z,100109.09
2023-04-15T19:56:39.000Z,100107.65
2023-04-15T20:01:41.583Z,100105.14
2023-04-15T20:06:44.243Z,100103.45
2023-04-15T20:12:45.637Z,100103.85
2023-04-15T20:17:09.286Z,100105.65
2023-04-15T20:22:12.009Z,100101.06
2023-04-15T20:27:14.599Z,100103.66
2023-04-15T20:32:18.689Z,100100.98
2023-04-15T20:37:21.329Z,100099.48
2023-04-15T20:42:23.846Z,100096.14
2023-04-15T20:47:26.495Z,100098.48
2023-04-15T20:52:29.812Z,100101.61
2023-04-15T20:57:32.393Z,100107.73
2023-04-15T21:02:35.111Z,100106.90
2023-04-15T21:07:38.037Z,100110.40
2023-04-15T21:12:41.162Z,100114.63
2023-04-15T21:17:43.791Z,100116.31
2023-04-15T21:22:46.680Z,100115.98
2023-04-15T21:27:49.236Z,100117.14
2023-04-15T21:32:52.799Z,100124.42
2023-04-15T21:37:55.574Z,100127.95
2023-04-15T21:42:58.250Z,100131.42
2023-04-15T21:48:07.736Z,100136.96
2023-04-15T21:53:11.181Z,100135.80
2023-04-15T21:58:13.735Z,100142.52
2023-04-15T22:03:16.563Z,100149.27
2023-04-15T22:08:19.341Z,100153.65
2023-04-15T22:13:21.936Z,100153.23
2023-04-15T22:18:24.494Z,100160.98
2023-04-15T22:23:27.130Z,100165.46
2023-04-15T22:28:29.736Z,100167.48
2023-04-15T22:33:32.327Z,100168.36
2023-04-15T22:38:34.937Z,100169.80
2023-04-15T22:43:37.480Z,100174.77
2023-04-15T22:48:40.092Z,100174.28
2023-04-15T22:53:42.608Z,100175.11
2023-04-15T22:58:45.159Z,100174.90
2023-04-15T23:03:55.839Z,100176.64
2023-04-15T23:09:02.074Z,100179.59
2023-04-15T23:14:04.612Z,100177.88
2023-04-15T23:19:07.412Z,100180.23
2023-04-15T23:24:11.827Z,100180.96
2023-04-15T23:29:14.347Z,100181.27
2023-04-15T23:34:16.835Z,100182.22
2023-04-15T23:39:20.480Z,100180.04
2023-04-15T23:44:24.225Z,100179.66
2023-04-15T23:49:26.773Z,100173.86
2023-04-15T23:54:29.341Z,100176.09
2023-04-15T23:59:31.839Z,100174.67
